createdAt,value
2022-07-25T00:01:49.497Z,8.07
2022-07-25T00:04:17.838Z,7.50
2022-07-25T00:06:45.975Z,7.13
2022-07-25T00:09:12.823Z,6.80
2022-07-25T00:11:39.653Z,7.60
2022-07-25T00:14:07.385Z,7.13
2022-07-25T00:16:34.488Z,7.10
2022-07-25T00:19:01.291Z,7.10
2022-07-25T00:21:28.456Z,7.13
2022-07-25T00:23:55.138Z,7.20
2022-07-25T00:26:21.847Z,6.93
2022-07-25T00:28:48.543Z,7.87
2022-07-25T00:31:15.535Z,7.27
2022-07-25T00:33:42.386Z,7.60
2022-07-25T00:36:09.670Z,7.40
2022-07-25T00:38:36.369Z,7.10
2022-07-25T00:41:04.346Z,7.57
2022-07-25T00:43:31.545Z,7.23
2022-07-25T00:45:59.014Z,6.63
2022-07-25T00:48:27.777Z,6.70
2022-07-25T00:50:58.593Z,7.30
2022-07-25T00:53:25.811Z,7.50
2022-07-25T00:55:53.078Z,7.50
2022-07-25T00:58:19.807Z,7.20
2022-07-25T01:00:47.376Z,6.87
2022-07-25T01:03:14.298Z,7.83
2022-07-25T01:05:41.153Z,7.43
2022-07-25T01:08:08.868Z,8.50
2022-07-25T01:10:36.427Z,7.50
2022-07-25T01:13:03.327Z,7.40
2022-07-25T01:15:30.150Z,7.47
2022-07-25T01:17:57.145Z,7.20
2022-07-25T01:20:26.872Z,8.00
2022-07-25T01:22:54.019Z,7.87
2022-07-25T01:25:21.258Z,7.50
2022-07-25T01:27:52.941Z,7.00
2022-07-25T01:30:23.153Z,7.50
2022-07-25T01:32:49.871Z,7.57
2022-07-25T01:35:16.637Z,7.60
2022-07-25T01:37:45.526Z,7.80
2022-07-25T01:40:14.465Z,7.33
2022-07-25T01:42:42.090Z,7.43
2022-07-25T01:45:09.678Z,7.60
2022-07-25T01:47:36.432Z,7.80
2022-07-25T01:50:04.480Z,7.93
2022-07-25T01:52:31.280Z,7.80
2022-07-25T01:54:58.019Z,8.00
2022-07-25T01:57:26.593Z,7.33
2022-07-25T01:59:58.396Z,7.47
2022-07-25T02:02:25.659Z,8.03
2022-07-25T02:04:52.478Z,7.87
2022-07-25T02:07:19.252Z,8.10
2022-07-25T02:09:45.971Z,8.10
2022-07-25T02:12:12.738Z,7.13
2022-07-25T02:14:39.592Z,7.47
2022-07-25T02:17:06.517Z,7.60
2022-07-25T02:19:33.267Z,7.73
2022-07-25T02:22:00.290Z,8.30
2022-07-25T02:24:27.016Z,7.90
2022-07-25T02:26:53.843Z,7.23
2022-07-25T02:29:21.900Z,7.60
2022-07-25T02:31:49.401Z,8.10
2022-07-25T02:34:16.082Z,7.60
2022-07-25T02:36:43.187Z,8.67
2022-07-25T02:39:09.936Z,8.57
2022-07-25T02:41:36.757Z,7.70
2022-07-25T02:44:04.492Z,6.80
2022-07-25T02:46:31.499Z,7.60
2022-07-25T02:48:59.039Z,8.07
2022-07-25T02:51:25.880Z,8.33
2022-07-25T02:53:57.801Z,8.27
2022-07-25T02:56:25.952Z,8.13
2022-07-25T02:58:56.352Z,7.73
2022-07-25T03:01:23.067Z,8.47
2022-07-25T03:03:49.880Z,8.07
2022-07-25T03:06:16.748Z,8.17
2022-07-25T03:08:43.473Z,8.13
2022-07-25T03:11:10.930Z,7.70
2022-07-25T03:13:37.593Z,7.70
2022-07-25T03:16:04.590Z,8.07
2022-07-25T03:18:31.352Z,8.60
2022-07-25T03:20:58.046Z,8.73
2022-07-25T03:23:27.223Z,8.87
2022-07-25T03:25:54.705Z,8.40
2022-07-25T03:28:21.400Z,7.87
2022-07-25T03:30:48.102Z,7.70
2022-07-25T03:33:14.749Z,8.83
2022-07-25T03:35:41.570Z,8.27
2022-07-25T03:38:08.346Z,7.40
2022-07-25T03:40:36.464Z,8.33
2022-07-25T03:43:03.291Z,8.43
2022-07-25T03:45:30.152Z,8.03
2022-07-25T03:47:56.883Z,8.70
2022-07-25T03:50:23.615Z,7.90
2022-07-25T03:52:50.319Z,8.43
2022-07-25T03:55:17.088Z,8.63
2022-07-25T03:57:43.815Z,8.83
2022-07-25T04:00:12.506Z,9.00
2022-07-25T04:02:39.604Z,8.90
2022-07-25T04:05:08.443Z,8.13
2022-07-25T04:07:35.920Z,8.37
2022-07-25T04:10:04.584Z,8.50
2022-07-25T04:12:31.379Z,9.10
2022-07-25T04:14:58.343Z,8.90
2022-07-25T04:17:25.885Z,8.50
2022-07-25T04:19:52.855Z,8.30
2022-07-25T04:22:19.596Z,8.40
2022-07-25T04:24:46.354Z,8.20
2022-07-25T04:27:13.036Z,9.20
2022-07-25T04:29:39.776Z,8.20
2022-07-25T04:32:06.886Z,8.80
2022-07-25T04:34:33.642Z,8.33
2022-07-25T04:37:00.489Z,8.67
2022-07-25T04:39:27.145Z,8.63
2022-07-25T04:41:53.838Z,8.10
2022-07-25T04:44:20.508Z,8.23
2022-07-25T04:46:47.205Z,7.60
2022-07-25T04:49:13.966Z,7.10
2022-07-25T04:51:40.701Z,7.87
2022-07-25T04:54:07.677Z,7.60
2022-07-25T04:56:34.781Z,9.23
2022-07-25T04:59:06.260Z,9.07
2022-07-25T05:01:34.707Z,9.20
2022-07-25T05:04:01.589Z,9.00
2022-07-25T05:06:28.313Z,8.00
2022-07-25T05:08:55.466Z,7.33
2022-07-25T05:11:22.419Z,7.90
2022-07-25T05:13:49.224Z,8.00
2022-07-25T05:16:16.032Z,7.80
2022-07-25T05:18:42.855Z,8.50
2022-07-25T05:21:13.059Z,8.73
2022-07-25T05:23:40.987Z,9.33
2022-07-25T05:26:07.844Z,8.60
2022-07-25T05:28:34.563Z,9.20
2022-07-25T05:31:01.375Z,8.07
2022-07-25T05:33:28.167Z,9.03
2022-07-25T05:35:54.827Z,8.80
2022-07-25T05:38:21.540Z,8.40
2022-07-25T05:40:49.025Z,8.33
2022-07-25T05:43:15.705Z,8.40
2022-07-25T05:45:42.528Z,8.30
2022-07-25T05:48:09.226Z,7.70
2022-07-25T05:50:38.721Z,8.70
2022-07-25T05:53:05.421Z,9.07
2022-07-25T05:55:32.414Z,8.07
2022-07-25T05:57:59.351Z,8.03
2022-07-25T06:00:26.310Z,8.23
2022-07-25T06:02:53.262Z,7.70
2022-07-25T06:05:20.003Z,8.27
2022-07-25T06:07:46.755Z,8.90
2022-07-25T06:10:13.436Z,8.10
2022-07-25T06:12:40.153Z,8.30
2022-07-25T06:15:07.531Z,9.30
2022-07-25T06:17:39.391Z,8.10
2022-07-25T06:20:06.521Z,9.27
2022-07-25T06:22:33.287Z,10.47
2022-07-25T06:25:02.227Z,9.47
2022-07-25T06:27:29.537Z,8.47
2022-07-25T06:29:56.510Z,10.77
2022-07-25T06:32:23.231Z,9.63
2022-07-25T06:34:49.980Z,9.43
2022-07-25T06:37:16.670Z,9.50
2022-07-25T06:39:45.835Z,9.17
2022-07-25T06:42:12.922Z,8.10
2022-07-25T06:44:39.718Z,8.67
2022-07-25T06:47:10.528Z,7.90
2022-07-25T06:49:37.307Z,8.37
2022-07-25T06:52:04.446Z,7.80
2022-07-25T06:54:31.137Z,7.87
2022-07-25T06:56:57.890Z,8.10
2022-07-25T06:59:24.690Z,8.10
2022-07-25T07:01:51.914Z,8.17
2022-07-25T07:04:18.777Z,8.13
2022-07-25T07:06:45.473Z,8.33
2022-07-25T07:09:12.248Z,6.80
2022-07-25T07:11:38.891Z,7.13
2022-07-25T07:14:05.887Z,8.60
2022-07-25T07:16:33.189Z,7.37
2022-07-25T07:19:00.060Z,8.00
2022-07-25T07:21:26.739Z,7.90
2022-07-25T07:23:53.877Z,8.23
2022-07-25T07:26:21.401Z,7.33
2022-07-25T07:28:48.174Z,8.33
2022-07-25T07:31:18.336Z,7.60
2022-07-25T07:33:45.677Z,7.87
2022-07-25T07:36:12.548Z,7.60
2022-07-25T07:38:39.915Z,7.50
2022-07-25T07:41:06.660Z,7.93
2022-07-25T07:43:33.393Z,7.03
2022-07-25T07:46:01.315Z,7.53
2022-07-25T07:48:29.729Z,7.93
2022-07-25T07:50:56.765Z,6.40
2022-07-25T07:53:43.496Z,7.60
2022-07-25T07:56:10.317Z,7.70
2022-07-25T07:58:37.018Z,7.73
2022-07-25T08:01:04.542Z,7.90
2022-07-25T08:03:31.518Z,7.27
2022-07-25T08:05:58.348Z,7.27
2022-07-25T08:08:30.936Z,7.60
2022-07-25T08:10:59.267Z,6.93
2022-07-25T08:13:29.085Z,8.70
2022-07-25T08:15:59.534Z,7.13
2022-07-25T08:18:29.803Z,6.60
2022-07-25T08:20:56.949Z,6.70
2022-07-25T08:23:25.379Z,7.10
2022-07-25T08:25:52.264Z,7.00
2022-07-25T08:28:19.709Z,6.40
2022-07-25T08:30:47.744Z,7.13
2022-07-25T08:33:18.296Z,6.97
2022-07-25T08:35:54.481Z,7.27
2022-07-25T08:38:22.190Z,7.03
2022-07-25T08:40:48.969Z,6.50
2022-07-25T08:43:16.873Z,7.10
2022-07-25T08:45:49.785Z,7.20
2022-07-25T08:48:25.964Z,6.13
2022-07-25T08:50:53.987Z,6.40
2022-07-25T08:53:36.893Z,6.60
2022-07-25T08:56:11.526Z,6.60
2022-07-25T08:58:40.884Z,6.23
2022-07-25T09:01:08.156Z,6.30
2022-07-25T09:03:36.274Z,6.67
2022-07-25T09:06:17.460Z,6.67
2022-07-25T09:08:54.514Z,6.57
2022-07-25T09:11:32.625Z,6.60
2022-07-25T09:14:05.899Z,6.07
2022-07-25T09:16:37.385Z,6.67
2022-07-25T09:19:17.604Z,6.17
2022-07-25T09:21:46.091Z,5.70
2022-07-25T09:24:17.991Z,6.03
2022-07-25T09:26:50.229Z,6.30
2022-07-25T09:29:23.980Z,6.00
2022-07-25T09:31:52.293Z,6.10
2022-07-25T09:34:37.742Z,6.20
2022-07-25T09:37:06.367Z,5.00
2022-07-25T09:39:48.476Z,5.47
2022-07-25T09:42:25.531Z,5.60
2022-07-25T09:45:04.269Z,5.60
2022-07-25T09:47:32.697Z,5.80
2022-07-25T09:49:59.593Z,5.80
2022-07-25T09:52:26.313Z,6.00
2022-07-25T09:54:54.825Z,6.03
2022-07-25T09:57:24.137Z,5.50
2022-07-25T09:59:50.886Z,5.30
2022-07-25T10:02:45.201Z,5.30
2022-07-25T10:05:32.287Z,6.10
2022-07-25T10:07:59.760Z,5.37
2022-07-25T10:10:32.414Z,5.57
2022-07-25T10:13:10.249Z,5.53
2022-07-25T10:15:43.756Z,4.40
2022-07-25T10:18:10.529Z,5.23
2022-07-25T10:20:37.781Z,5.00
2022-07-25T10:23:34.764Z,4.97
2022-07-25T10:26:09.798Z,5.30
2022-07-25T10:28:42.590Z,5.37
2022-07-25T10:31:22.103Z,4.73
2022-07-25T10:33:55.688Z,4.70
2022-07-25T10:36:23.770Z,4.70
2022-07-25T10:38:57.768Z,5.30
2022-07-25T10:41:28.846Z,4.80
2022-07-25T10:44:01.485Z,4.80
2022-07-25T10:46:30.936Z,4.97
2022-07-25T10:49:04.037Z,5.17
2022-07-25T10:51:41.681Z,4.93
2022-07-25T10:54:16.504Z,4.07
2022-07-25T10:56:57.852Z,5.20
2022-07-25T10:59:29.015Z,4.70
2022-07-25T11:01:56.130Z,4.60
2022-07-25T11:04:23.884Z,4.23
2022-07-25T11:06:50.692Z,5.17
2022-07-25T11:09:27.172Z,5.00
2022-07-25T11:11:57.436Z,4.87
2022-07-25T11:14:38.121Z,4.60
2022-07-25T11:17:13.221Z,5.37
2022-07-25T11:19:40.920Z,4.73
2022-07-25T11:22:08.507Z,4.50
2022-07-25T11:24:44.241Z,4.43
2022-07-25T11:27:22.713Z,3.90
2022-07-25T11:29:49.877Z,3.43
2022-07-25T11:32:16.955Z,3.73
2022-07-25T11:34:53.302Z,3.80
2022-07-25T11:37:20.879Z,3.50
2022-07-25T11:39:48.244Z,3.70
2022-07-25T11:42:19.397Z,3.90
2022-07-25T11:44:51.410Z,3.37
2022-07-25T11:47:28.150Z,3.90
2022-07-25T11:49:56.754Z,3.00
2022-07-25T11:52:36.006Z,3.43
2022-07-25T11:55:11.514Z,3.43
2022-07-25T11:57:46.641Z,3.33
2022-07-25T12:00:19.391Z,3.30
2022-07-25T12:02:47.952Z,3.37
2022-07-25T12:05:17.574Z,3.10
2022-07-25T12:07:53.050Z,3.60
2022-07-25T12:10:19.690Z,3.10
2022-07-25T12:12:53.355Z,3.53
2022-07-25T12:15:29.654Z,3.40
2022-07-25T12:17:58.156Z,3.60
2022-07-25T12:20:31.283Z,3.43
2022-07-25T12:23:07.438Z,3.00
2022-07-25T12:25:37.083Z,3.17
2022-07-25T12:28:04.293Z,3.07
2022-07-25T12:30:31.851Z,3.90
2022-07-25T12:33:00.219Z,3.73
2022-07-25T12:35:27.876Z,4.10
2022-07-25T12:37:55.563Z,3.73
2022-07-25T12:40:22.767Z,3.50
2022-07-25T12:42:50.069Z,4.00
2022-07-25T12:45:17.890Z,3.30
2022-07-25T12:47:46.399Z,3.93
2022-07-25T12:50:14.564Z,3.50
2022-07-25T12:52:42.598Z,3.30
2022-07-25T12:55:12.450Z,3.73
2022-07-25T12:57:39.527Z,3.70
2022-07-25T13:00:09.259Z,3.13
2022-07-25T13:02:36.193Z,3.20
2022-07-25T13:05:02.981Z,3.70
2022-07-25T13:07:29.773Z,3.50
2022-07-25T13:09:56.475Z,3.57
2022-07-25T13:12:24.096Z,3.93
2022-07-25T13:14:51.717Z,4.17
2022-07-25T13:17:21.343Z,3.70
2022-07-25T13:19:50.285Z,3.70
2022-07-25T13:22:16.995Z,4.10
2022-07-25T13:24:43.836Z,3.40
2022-07-25T13:27:10.598Z,3.90
2022-07-25T13:29:37.287Z,3.80
2022-07-25T13:32:04.214Z,3.77
2022-07-25T13:34:30.961Z,3.60
2022-07-25T13:36:58.366Z,3.90
2022-07-25T13:39:25.042Z,3.70
2022-07-25T13:41:51.774Z,3.47
2022-07-25T13:44:18.817Z,3.60
2022-07-25T13:46:49.845Z,4.00
2022-07-25T13:49:18.168Z,3.77
2022-07-25T13:51:45.568Z,3.50
2022-07-25T13:54:12.941Z,3.67
2022-07-25T13:56:41.384Z,3.70
2022-07-25T13:59:08.848Z,3.97
2022-07-25T14:01:35.953Z,3.87
2022-07-25T14:04:02.712Z,4.17
2022-07-25T14:06:29.537Z,3.77
2022-07-25T14:08:56.278Z,3.80
2022-07-25T14:11:26.020Z,4.10
2022-07-25T14:13:56.939Z,3.83
2022-07-25T14:16:23.599Z,3.90
2022-07-25T14:18:50.814Z,4.87
2022-07-25T14:21:17.509Z,4.33
2022-07-25T14:23:44.229Z,4.00
2022-07-25T14:26:10.905Z,4.00
2022-07-25T14:28:37.572Z,4.20
2022-07-25T14:31:04.463Z,4.63
2022-07-25T14:33:31.286Z,4.40
2022-07-25T14:35:58.941Z,4.70
2022-07-25T14:38:25.659Z,4.50
2022-07-25T14:40:52.346Z,4.83
2022-07-25T14:43:19.053Z,4.90
2022-07-25T14:45:45.739Z,5.07
2022-07-25T14:48:12.426Z,5.00
2022-07-25T14:50:39.112Z,5.40
2022-07-25T14:53:05.801Z,5.40
2022-07-25T14:55:32.526Z,5.37
2022-07-25T14:58:02.404Z,5.43
2022-07-25T15:00:29.762Z,5.33
2022-07-25T15:02:56.962Z,4.70
2022-07-25T15:05:23.867Z,5.20
2022-07-25T15:07:50.951Z,5.47
2022-07-25T15:10:17.679Z,4.97
2022-07-25T15:12:44.330Z,5.73
2022-07-25T15:15:11.536Z,5.50
2022-07-25T15:17:39.735Z,5.57
2022-07-25T15:20:07.223Z,5.57
2022-07-25T15:22:33.895Z,4.93
2022-07-25T15:27:47.381Z,5.93
2022-07-25T15:30:14.133Z,5.30
2022-07-25T15:32:40.811Z,5.60
2022-07-25T15:35:09.429Z,6.30
2022-07-25T15:37:36.170Z,5.30
2022-07-25T15:40:03.933Z,5.70
2022-07-25T15:42:32.082Z,5.07
2022-07-25T15:45:30.218Z,5.73
2022-07-25T15:47:50.689Z,5.50
2022-07-25T15:50:18.766Z,5.27
2022-07-25T15:52:45.809Z,5.57
2022-07-25T15:55:12.721Z,5.70
2022-07-25T15:57:39.480Z,4.50
2022-07-25T16:00:08.578Z,5.20
2022-07-25T16:02:35.899Z,5.00
2022-07-25T16:05:03.988Z,5.70
2022-07-25T16:07:30.796Z,5.40
2022-07-25T16:09:57.567Z,5.53
2022-07-25T16:12:28.452Z,6.27
2022-07-25T16:14:55.927Z,5.67
2022-07-25T16:17:23.116Z,6.40
2022-07-25T16:19:49.982Z,5.53
2022-07-25T16:22:16.943Z,6.10
2022-07-25T16:24:43.685Z,5.77
2022-07-25T16:27:10.515Z,5.37
2022-07-25T16:29:37.629Z,5.67
2022-07-25T16:32:05.518Z,5.33
2022-07-25T16:34:32.869Z,4.87
2022-07-25T16:37:00.387Z,4.73
2022-07-25T16:39:27.288Z,5.37
2022-07-25T16:41:54.192Z,4.77
2022-07-25T16:44:23.643Z,5.03
2022-07-25T16:46:50.952Z,5.03
2022-07-25T16:49:18.578Z,4.73
2022-07-25T16:51:45.996Z,4.93
2022-07-25T16:54:12.807Z,5.07
2022-07-25T16:56:40.520Z,4.70
2022-07-25T16:59:08.182Z,4.90
2022-07-25T17:01:36.250Z,5.20
2022-07-25T17:04:03.816Z,5.30
2022-07-25T17:06:30.826Z,5.20
2022-07-25T17:08:58.610Z,4.87
2022-07-25T17:11:25.503Z,4.53
2022-07-25T17:13:52.150Z,5.27
2022-07-25T17:16:18.961Z,4.60
2022-07-25T17:18:45.713Z,4.80
2022-07-25T17:21:15.208Z,4.60
2022-07-25T17:23:42.005Z,4.63
2022-07-25T17:26:08.796Z,4.83
2022-07-25T17:28:35.923Z,5.50
2022-07-25T17:31:02.689Z,4.33
2022-07-25T17:33:29.409Z,4.53
2022-07-25T17:35:56.272Z,5.00
2022-07-25T17:38:26.944Z,5.37
2022-07-25T17:40:55.195Z,4.87
2022-07-25T17:43:21.894Z,5.67
2022-07-25T17:45:48.647Z,5.10
2022-07-25T17:48:15.829Z,5.67
2022-07-25T17:50:42.670Z,5.57
2022-07-25T17:53:09.318Z,6.47
2022-07-25T17:55:38.939Z,5.97
2022-07-25T17:58:06.077Z,6.10
2022-07-25T18:00:32.796Z,6.40
2022-07-25T18:02:59.575Z,5.67
2022-07-25T18:05:26.723Z,6.57
2022-07-25T18:07:53.967Z,6.23
2022-07-25T18:10:23.747Z,6.87
2022-07-25T18:12:50.688Z,6.37
2022-07-25T18:15:17.517Z,6.10
2022-07-25T18:17:45.669Z,6.70
2022-07-25T18:20:13.488Z,6.33
2022-07-25T18:22:41.240Z,6.30
2022-07-25T18:25:12.924Z,6.10
2022-07-25T18:27:45.038Z,6.50
2022-07-25T18:30:13.029Z,5.63
2022-07-25T18:32:40.939Z,5.60
2022-07-25T18:35:08.073Z,6.33
2022-07-25T18:37:35.390Z,5.87
2022-07-25T18:40:02.265Z,5.93
2022-07-25T18:42:30.059Z,7.10
2022-07-25T18:44:57.207Z,6.10
2022-07-25T18:47:27.903Z,5.97
2022-07-25T18:49:59.138Z,5.67
2022-07-25T18:52:25.841Z,5.47
2022-07-25T18:54:52.551Z,5.37
2022-07-25T18:57:19.478Z,5.37
2022-07-25T18:59:46.308Z,4.90
2022-07-25T19:02:13.073Z,5.10
2022-07-25T19:04:39.807Z,5.73
2022-07-25T19:07:07.445Z,4.90
2022-07-25T19:09:34.169Z,5.07
2022-07-25T19:12:01.232Z,4.60
2022-07-25T19:14:28.793Z,5.00
2022-07-25T19:16:55.579Z,4.90
2022-07-25T19:19:22.285Z,4.80
2022-07-25T19:21:49.124Z,4.13
2022-07-25T19:24:16.270Z,3.70
2022-07-25T19:26:43.044Z,4.37
2022-07-25T19:29:16.396Z,3.63
2022-07-25T19:31:43.412Z,4.23
2022-07-25T19:34:11.062Z,4.33
2022-07-25T19:36:38.269Z,4.50
2022-07-25T19:39:06.147Z,3.80
2022-07-25T19:41:33.262Z,4.27
2022-07-25T19:43:59.921Z,3.40
2022-07-25T19:46:31.070Z,3.70
2022-07-25T19:48:58.107Z,3.53
2022-07-25T19:51:25.789Z,4.40
2022-07-25T19:53:52.662Z,3.60
2022-07-25T19:56:20.145Z,3.83
2022-07-25T19:58:46.888Z,3.50
2022-07-25T20:01:14.056Z,4.17
2022-07-25T20:03:41.586Z,3.93
2022-07-25T20:06:08.997Z,3.87
2022-07-25T20:08:37.153Z,3.87
2022-07-25T20:11:03.929Z,3.47
2022-07-25T20:13:30.713Z,3.80
2022-07-25T20:15:58.594Z,3.97
2022-07-25T20:18:25.614Z,4.30
2022-07-25T20:20:52.810Z,4.50
2022-07-25T20:23:19.629Z,4.20
2022-07-25T20:25:46.327Z,4.40
2022-07-25T20:28:13.614Z,4.03
2022-07-25T20:30:40.405Z,3.97
2022-07-25T20:33:09.407Z,4.40
2022-07-25T20:35:37.964Z,4.00
2022-07-25T20:38:09.208Z,4.23
2022-07-25T20:40:46.362Z,4.07
2022-07-25T20:43:16.067Z,3.97
2022-07-25T20:45:43.047Z,4.00
2022-07-25T20:48:09.947Z,3.90
2022-07-25T20:50:37.895Z,3.83
2022-07-25T20:53:06.116Z,4.17
2022-07-25T20:55:33.617Z,4.50
2022-07-25T20:58:00.873Z,4.37
2022-07-25T21:00:28.843Z,4.50
2022-07-25T21:02:56.106Z,3.90
2022-07-25T21:05:23.615Z,4.20
2022-07-25T21:07:50.481Z,3.60
2022-07-25T21:10:17.440Z,4.50
2022-07-25T21:12:45.347Z,4.80
2022-07-25T21:15:12.929Z,4.53
2022-07-25T21:17:39.847Z,4.17
2022-07-25T21:20:08.866Z,4.33
2022-07-25T21:22:36.018Z,4.00
2022-07-25T21:25:02.814Z,3.93
2022-07-25T21:27:29.560Z,3.73
2022-07-25T21:29:56.372Z,3.80
2022-07-25T21:32:23.504Z,4.37
2022-07-25T21:34:50.423Z,3.90
2022-07-25T21:37:17.204Z,3.90
2022-07-25T21:39:44.211Z,3.80
2022-07-25T21:42:11.695Z,3.87
2022-07-25T21:44:43.525Z,4.20
2022-07-25T21:47:11.187Z,3.47
2022-07-25T21:49:57.015Z,3.47
2022-07-25T21:52:30.042Z,3.50
2022-07-25T21:55:03.468Z,3.80
2022-07-25T21:57:30.587Z,3.27
2022-07-25T21:59:57.319Z,3.60
2022-07-25T22:02:24.007Z,2.87
2022-07-25T22:04:50.876Z,3.60
2022-07-25T22:07:17.933Z,3.77
2022-07-25T22:09:45.511Z,2.90
2022-07-25T22:12:12.249Z,3.43
2022-07-25T22:14:38.987Z,3.40
2022-07-25T22:17:05.966Z,3.40
2022-07-25T22:19:33.288Z,2.80
2022-07-25T22:22:00.512Z,3.47
2022-07-25T22:24:27.445Z,3.00
2022-07-25T22:26:54.311Z,2.90
2022-07-25T22:29:21.384Z,2.43
2022-07-25T22:31:48.707Z,4.27
2022-07-25T22:34:15.571Z,3.10
2022-07-25T22:36:42.643Z,3.33
2022-07-25T22:39:10.260Z,2.60
2022-07-25T22:41:38.254Z,3.47
2022-07-25T22:44:05.271Z,3.00
2022-07-25T22:46:32.223Z,2.70
2022-07-25T22:48:59.354Z,2.73
2022-07-25T22:51:26.835Z,3.90
2022-07-25T22:53:53.751Z,2.77
2022-07-25T22:56:21.230Z,2.73
2022-07-25T22:58:49.155Z,3.20
2022-07-25T23:01:16.894Z,3.13
2022-07-25T23:03:43.684Z,3.17
2022-07-25T23:06:10.707Z,2.87
2022-07-25T23:08:37.414Z,3.47
2022-07-25T23:11:06.105Z,2.73
2022-07-25T23:13:33.821Z,3.33
2022-07-25T23:16:00.847Z,3.17
2022-07-25T23:18:30.062Z,3.07
2022-07-25T23:20:56.863Z,3.20
2022-07-25T23:23:23.690Z,2.80
2022-07-25T23:25:50.393Z,2.70
2022-07-25T23:28:17.057Z,3.80
2022-07-25T23:30:43.807Z,3.20
2022-07-25T23:33:10.506Z,2.87
2022-07-25T23:35:37.887Z,2.90
2022-07-25T23:38:04.733Z,2.90
2022-07-25T23:40:31.447Z,2.70
2022-07-25T23:42:58.167Z,3.13
2022-07-25T23:45:26.980Z,2.57
2022-07-25T23:47:55.531Z,2.70
2022-07-25T23:50:23.056Z,2.57
2022-07-25T23:52:50.082Z,2.97
2022-07-25T23:55:16.807Z,2.70
2022-07-25T23:57:43.652Z,2.60
